sensor_id;sensor_type;location;lat;lon;timestamp;P1;durP1;ratioP1;P2;durP2;ratioP2
75171;SDS011;63750;52.418;20.742;2024-02-04T00:00:28;6.00;;;3.00;;
75171;SDS011;63750;52.418;20.742;2024-02-04T00:02:56;6.70;;;3.00;;
75171;SDS011;63750;52.418;20.742;2024-02-04T00:05:24;6.00;;;2.70;;
75171;SDS011;63750;52.418;20.742;2024-02-04T00:07:52;4.00;;;2.40;;
75171;SDS011;63750;52.418;20.742;2024-02-04T00:10:20;4.40;;;2.60;;
75171;SDS011;63750;52.418;20.742;2024-02-04T00:12:49;6.30;;;2.90;;
75171;SDS011;63750;52.418;20.742;2024-02-04T00:15:17;5.60;;;2.90;;
75171;SDS011;63750;52.418;20.742;2024-02-04T00:17:52;7.50;;;3.30;;
75171;SDS011;63750;52.418;20.742;2024-02-04T00:20:20;7.90;;;2.80;;
75171;SDS011;63750;52.418;20.742;2024-02-04T00:22:48;6.20;;;3.00;;
75171;SDS011;63750;52.418;20.742;2024-02-04T00:25:16;5.60;;;3.20;;
75171;SDS011;63750;52.418;20.742;2024-02-04T00:27:44;9.10;;;3.40;;
75171;SDS011;63750;52.418;20.742;2024-02-04T00:30:13;4.70;;;3.30;;
75171;SDS011;63750;52.418;20.742;2024-02-04T00:32:41;8.40;;;3.90;;
75171;SDS011;63750;52.418;20.742;2024-02-04T00:35:09;6.90;;;4.00;;
75171;SDS011;63750;52.418;20.742;2024-02-04T00:37:39;8.00;;;4.20;;
75171;SDS011;63750;52.418;20.742;2024-02-04T00:40:08;6.10;;;3.80;;
75171;SDS011;63750;52.418;20.742;2024-02-04T00:42:38;7.00;;;3.60;;
75171;SDS011;63750;52.418;20.742;2024-02-04T00:45:06;8.40;;;3.40;;
75171;SDS011;63750;52.418;20.742;2024-02-04T00:47:35;6.70;;;3.30;;
75171;SDS011;63750;52.418;20.742;2024-02-04T00:50:04;4.40;;;3.30;;
75171;SDS011;63750;52.418;20.742;2024-02-04T00:52:34;7.10;;;3.50;;
75171;SDS011;63750;52.418;20.742;2024-02-04T00:55:02;8.10;;;3.50;;
75171;SDS011;63750;52.418;20.742;2024-02-04T00:57:31;9.10;;;4.10;;
75171;SDS011;63750;52.418;20.742;2024-02-04T00:59:59;7.90;;;4.20;;
75171;SDS011;63750;52.418;20.742;2024-02-04T01:02:27;9.10;;;4.10;;
75171;SDS011;63750;52.418;20.742;2024-02-04T01:04:55;7.70;;;4.10;;
75171;SDS011;63750;52.418;20.742;2024-02-04T01:07:23;7.30;;;4.50;;
75171;SDS011;63750;52.418;20.742;2024-02-04T01:09:52;6.50;;;3.90;;
75171;SDS011;63750;52.418;20.742;2024-02-04T01:12:20;7.30;;;3.80;;
75171;SDS011;63750;52.418;20.742;2024-02-04T01:14:48;8.70;;;4.20;;
75171;SDS011;63750;52.418;20.742;2024-02-04T01:17:16;6.10;;;3.60;;
75171;SDS011;63750;52.418;20.742;2024-02-04T01:19:44;8.80;;;3.70;;
75171;SDS011;63750;52.418;20.742;2024-02-04T01:22:13;5.90;;;3.20;;
75171;SDS011;63750;52.418;20.742;2024-02-04T01:24:41;5.90;;;3.70;;
75171;SDS011;63750;52.418;20.742;2024-02-04T01:27:09;13.60;;;4.80;;
75171;SDS011;63750;52.418;20.742;2024-02-04T01:29:37;7.00;;;3.30;;
75171;SDS011;63750;52.418;20.742;2024-02-04T01:32:06;7.10;;;3.20;;
75171;SDS011;63750;52.418;20.742;2024-02-04T01:34:34;10.20;;;3.30;;
75171;SDS011;63750;52.418;20.742;2024-02-04T01:37:02;7.90;;;3.80;;
75171;SDS011;63750;52.418;20.742;2024-02-04T01:39:31;9.00;;;3.30;;
75171;SDS011;63750;52.418;20.742;2024-02-04T01:41:59;5.00;;;3.20;;
75171;SDS011;63750;52.418;20.742;2024-02-04T01:44:27;6.80;;;3.10;;
75171;SDS011;63750;52.418;20.742;2024-02-04T01:46:55;7.50;;;3.20;;
75171;SDS011;63750;52.418;20.742;2024-02-04T01:49:24;5.30;;;3.30;;
75171;SDS011;63750;52.418;20.742;2024-02-04T01:51:52;7.50;;;3.10;;
75171;SDS011;63750;52.418;20.742;2024-02-04T01:54:21;6.70;;;3.40;;
75171;SDS011;63750;52.418;20.742;2024-02-04T01:56:50;9.40;;;3.70;;
75171;SDS011;63750;52.418;20.742;2024-02-04T01:59:21;5.40;;;2.80;;
75171;SDS011;63750;52.418;20.742;2024-02-04T02:01:51;10.30;;;3.30;;
75171;SDS011;63750;52.418;20.742;2024-02-04T02:04:19;7.50;;;3.00;;
75171;SDS011;63750;52.418;20.742;2024-02-04T02:06:48;6.10;;;2.60;;
75171;SDS011;63750;52.418;20.742;2024-02-04T02:09:16;4.80;;;3.20;;
75171;SDS011;63750;52.418;20.742;2024-02-04T02:11:45;5.70;;;3.00;;
75171;SDS011;63750;52.418;20.742;2024-02-04T02:14:18;5.70;;;3.20;;
75171;SDS011;63750;52.418;20.742;2024-02-04T02:16:50;6.00;;;3.30;;
75171;SDS011;63750;52.418;20.742;2024-02-04T02:19:26;6.30;;;3.20;;
75171;SDS011;63750;52.418;20.742;2024-02-04T02:22:06;4.60;;;3.10;;
75171;SDS011;63750;52.418;20.742;2024-02-04T02:24:53;5.40;;;3.20;;
75171;SDS011;63750;52.418;20.742;2024-02-04T02:27:23;5.50;;;3.10;;
75171;SDS011;63750;52.418;20.742;2024-02-04T02:29:51;6.70;;;3.00;;
75171;SDS011;63750;52.418;20.742;2024-02-04T02:32:19;6.30;;;3.20;;
75171;SDS011;63750;52.418;20.742;2024-02-04T02:34:48;6.10;;;2.90;;
75171;SDS011;63750;52.418;20.742;2024-02-04T02:37:20;7.40;;;3.00;;
75171;SDS011;63750;52.418;20.742;2024-02-04T02:39:58;5.30;;;3.10;;
75171;SDS011;63750;52.418;20.742;2024-02-04T02:42:31;8.00;;;3.10;;
75171;SDS011;63750;52.418;20.742;2024-02-04T02:45:01;5.10;;;2.80;;
75171;SDS011;63750;52.418;20.742;2024-02-04T02:47:30;5.30;;;3.10;;
75171;SDS011;63750;52.418;20.742;2024-02-04T02:50:01;6.70;;;3.20;;
75171;SDS011;63750;52.418;20.742;2024-02-04T02:52:31;7.40;;;3.00;;
75171;SDS011;63750;52.418;20.742;2024-02-04T02:54:59;8.00;;;3.40;;
75171;SDS011;63750;52.418;20.742;2024-02-04T02:57:27;11.40;;;3.20;;
75171;SDS011;63750;52.418;20.742;2024-02-04T02:59:55;6.40;;;3.60;;
75171;SDS011;63750;52.418;20.742;2024-02-04T03:02:23;6.80;;;3.20;;
75171;SDS011;63750;52.418;20.742;2024-02-04T03:04:52;5.00;;;2.70;;
75171;SDS011;63750;52.418;20.742;2024-02-04T03:07:20;6.70;;;2.90;;
75171;SDS011;63750;52.418;20.742;2024-02-04T03:09:48;7.80;;;3.10;;
75171;SDS011;63750;52.418;20.742;2024-02-04T03:12:16;5.90;;;3.10;;
75171;SDS011;63750;52.418;20.742;2024-02-04T03:14:44;4.20;;;2.60;;
75171;SDS011;63750;52.418;20.742;2024-02-04T03:17:12;6.30;;;3.00;;
75171;SDS011;63750;52.418;20.742;2024-02-04T03:19:41;5.90;;;2.80;;
75171;SDS011;63750;52.418;20.742;2024-02-04T03:22:09;5.30;;;2.40;;
75171;SDS011;63750;52.418;20.742;2024-02-04T03:24:37;4.60;;;2.60;;
75171;SDS011;63750;52.418;20.742;2024-02-04T03:27:05;7.50;;;2.50;;
75171;SDS011;63750;52.418;20.742;2024-02-04T03:29:33;6.30;;;2.70;;
75171;SDS011;63750;52.418;20.742;2024-02-04T03:32:02;5.30;;;2.40;;
75171;SDS011;63750;52.418;20.742;2024-02-04T03:34:30;6.40;;;3.00;;
75171;SDS011;63750;52.418;20.742;2024-02-04T03:36:59;7.40;;;2.80;;
75171;SDS011;63750;52.418;20.742;2024-02-04T03:39:27;9.30;;;2.70;;
75171;SDS011;63750;52.418;20.742;2024-02-04T03:41:55;4.50;;;2.80;;
75171;SDS011;63750;52.418;20.742;2024-02-04T03:44:23;5.70;;;2.90;;
75171;SDS011;63750;52.418;20.742;2024-02-04T03:46:51;5.30;;;2.70;;
75171;SDS011;63750;52.418;20.742;2024-02-04T03:49:20;8.40;;;3.40;;
75171;SDS011;63750;52.418;20.742;2024-02-04T03:51:49;5.50;;;2.80;;
75171;SDS011;63750;52.418;20.742;2024-02-04T03:54:17;4.80;;;2.50;;
75171;SDS011;63750;52.418;20.742;2024-02-04T03:56:45;4.40;;;2.50;;
75171;SDS011;63750;52.418;20.742;2024-02-04T03:59:13;5.40;;;3.00;;
75171;SDS011;63750;52.418;20.742;2024-02-04T04:01:46;6.80;;;2.60;;
75171;SDS011;63750;52.418;20.742;2024-02-04T04:04:15;6.20;;;2.90;;
75171;SDS011;63750;52.418;20.742;2024-02-04T04:06:44;5.10;;;2.70;;
75171;SDS011;63750;52.418;20.742;2024-02-04T04:09:12;7.80;;;3.00;;
75171;SDS011;63750;52.418;20.742;2024-02-04T04:11:41;4.80;;;2.80;;
75171;SDS011;63750;52.418;20.742;2024-02-04T04:14:09;8.40;;;3.20;;
75171;SDS011;63750;52.418;20.742;2024-02-04T04:16:37;6.10;;;2.60;;
75171;SDS011;63750;52.418;20.742;2024-02-04T04:19:05;5.80;;;2.80;;
75171;SDS011;63750;52.418;20.742;2024-02-04T04:21:33;3.70;;;2.70;;
75171;SDS011;63750;52.418;20.742;2024-02-04T04:24:04;5.50;;;2.80;;
75171;SDS011;63750;52.418;20.742;2024-02-04T04:26:32;4.60;;;2.70;;
75171;SDS011;63750;52.418;20.742;2024-02-04T04:29:01;5.00;;;2.40;;
75171;SDS011;63750;52.418;20.742;2024-02-04T04:31:29;5.70;;;2.80;;
75171;SDS011;63750;52.418;20.742;2024-02-04T04:33:57;4.20;;;2.70;;
75171;SDS011;63750;52.418;20.742;2024-02-04T04:36:25;4.90;;;2.50;;
75171;SDS011;63750;52.418;20.742;2024-02-04T04:38:54;4.70;;;2.40;;
75171;SDS011;63750;52.418;20.742;2024-02-04T04:41:22;5.80;;;2.70;;
75171;SDS011;63750;52.418;20.742;2024-02-04T04:43:50;8.40;;;3.00;;
75171;SDS011;63750;52.418;20.742;2024-02-04T04:46:18;6.10;;;3.20;;
75171;SDS011;63750;52.418;20.742;2024-02-04T04:48:46;7.90;;;3.00;;
75171;SDS011;63750;52.418;20.742;2024-02-04T04:51:15;4.70;;;2.70;;
75171;SDS011;63750;52.418;20.742;2024-02-04T04:53:43;5.10;;;2.60;;
75171;SDS011;63750;52.418;20.742;2024-02-04T04:56:11;4.70;;;2.70;;
75171;SDS011;63750;52.418;20.742;2024-02-04T04:58:39;7.20;;;2.70;;
75171;SDS011;63750;52.418;20.742;2024-02-04T05:01:07;5.50;;;2.80;;
75171;SDS011;63750;52.418;20.742;2024-02-04T05:03:36;7.50;;;2.70;;
75171;SDS011;63750;52.418;20.742;2024-02-04T05:06:04;11.20;;;2.70;;
75171;SDS011;63750;52.418;20.742;2024-02-04T05:08:32;6.20;;;2.80;;
75171;SDS011;63750;52.418;20.742;2024-02-04T05:11:01;4.00;;;2.20;;
75171;SDS011;63750;52.418;20.742;2024-02-04T05:13:29;3.70;;;2.30;;
75171;SDS011;63750;52.418;20.742;2024-02-04T05:15:57;6.90;;;2.00;;
75171;SDS011;63750;52.418;20.742;2024-02-04T05:18:25;5.00;;;1.80;;
75171;SDS011;63750;52.418;20.742;2024-02-04T05:20:53;4.40;;;2.00;;
75171;SDS011;63750;52.418;20.742;2024-02-04T05:23:21;3.50;;;1.80;;
75171;SDS011;63750;52.418;20.742;2024-02-04T05:25:49;2.60;;;1.80;;
75171;SDS011;63750;52.418;20.742;2024-02-04T05:28:18;6.80;;;1.80;;
75171;SDS011;63750;52.418;20.742;2024-02-04T05:30:46;4.10;;;2.00;;
75171;SDS011;63750;52.418;20.742;2024-02-04T05:33:21;3.30;;;2.10;;
75171;SDS011;63750;52.418;20.742;2024-02-04T05:35:49;5.30;;;2.10;;
75171;SDS011;63750;52.418;20.742;2024-02-04T05:38:17;6.60;;;2.50;;
75171;SDS011;63750;52.418;20.742;2024-02-04T05:40:45;5.30;;;2.30;;
75171;SDS011;63750;52.418;20.742;2024-02-04T05:43:14;3.50;;;2.10;;
75171;SDS011;63750;52.418;20.742;2024-02-04T05:45:42;4.30;;;2.40;;
75171;SDS011;63750;52.418;20.742;2024-02-04T05:48:10;6.20;;;2.10;;
75171;SDS011;63750;52.418;20.742;2024-02-04T05:50:38;5.40;;;2.80;;
75171;SDS011;63750;52.418;20.742;2024-02-04T05:53:06;5.80;;;2.90;;
75171;SDS011;63750;52.418;20.742;2024-02-04T05:55:35;8.10;;;2.80;;
75171;SDS011;63750;52.418;20.742;2024-02-04T05:58:03;7.10;;;3.00;;
75171;SDS011;63750;52.418;20.742;2024-02-04T06:00:31;5.50;;;2.80;;
75171;SDS011;63750;52.418;20.742;2024-02-04T06:02:59;5.90;;;3.00;;
75171;SDS011;63750;52.418;20.742;2024-02-04T06:05:27;6.40;;;3.20;;
75171;SDS011;63750;52.418;20.742;2024-02-04T06:07:55;8.30;;;3.00;;
75171;SDS011;63750;52.418;20.742;2024-02-04T06:10:24;8.00;;;3.10;;
75171;SDS011;63750;52.418;20.742;2024-02-04T06:12:52;4.90;;;2.60;;
75171;SDS011;63750;52.418;20.742;2024-02-04T06:15:20;8.20;;;3.00;;
75171;SDS011;63750;52.418;20.742;2024-02-04T06:17:48;7.00;;;3.10;;
75171;SDS011;63750;52.418;20.742;2024-02-04T06:20:16;5.00;;;2.80;;
75171;SDS011;63750;52.418;20.742;2024-02-04T06:22:45;8.50;;;2.80;;
75171;SDS011;63750;52.418;20.742;2024-02-04T06:25:13;5.90;;;2.60;;
75171;SDS011;63750;52.418;20.742;2024-02-04T06:27:41;5.90;;;2.40;;
75171;SDS011;63750;52.418;20.742;2024-02-04T06:30:10;5.60;;;2.60;;
75171;SDS011;63750;52.418;20.742;2024-02-04T06:32:39;6.30;;;2.50;;
75171;SDS011;63750;52.418;20.742;2024-02-04T06:35:08;5.60;;;2.60;;
75171;SDS011;63750;52.418;20.742;2024-02-04T06:37:36;9.70;;;3.70;;
75171;SDS011;63750;52.418;20.742;2024-02-04T06:40:05;6.60;;;2.50;;
75171;SDS011;63750;52.418;20.742;2024-02-04T06:42:35;7.50;;;2.80;;
75171;SDS011;63750;52.418;20.742;2024-02-04T06:45:04;5.10;;;2.70;;
75171;SDS011;63750;52.418;20.742;2024-02-04T06:47:33;5.30;;;2.30;;
75171;SDS011;63750;52.418;20.742;2024-02-04T06:50:01;5.10;;;2.70;;
75171;SDS011;63750;52.418;20.742;2024-02-04T06:52:30;10.00;;;2.90;;
75171;SDS011;63750;52.418;20.742;2024-02-04T06:54:58;6.50;;;2.50;;
75171;SDS011;63750;52.418;20.742;2024-02-04T06:57:26;6.00;;;2.50;;
75171;SDS011;63750;52.418;20.742;2024-02-04T06:59:55;6.80;;;2.70;;
75171;SDS011;63750;52.418;20.742;2024-02-04T07:02:23;5.40;;;2.50;;
75171;SDS011;63750;52.418;20.742;2024-02-04T07:04:51;10.80;;;3.10;;
75171;SDS011;63750;52.418;20.742;2024-02-04T07:07:20;8.00;;;2.90;;
75171;SDS011;63750;52.418;20.742;2024-02-04T07:09:48;6.70;;;2.60;;
75171;SDS011;63750;52.418;20.742;2024-02-04T07:12:16;6.00;;;2.60;;
75171;SDS011;63750;52.418;20.742;2024-02-04T07:14:44;7.10;;;2.90;;
75171;SDS011;63750;52.418;20.742;2024-02-04T07:17:13;6.50;;;2.40;;
75171;SDS011;63750;52.418;20.742;2024-02-04T07:19:41;8.50;;;2.90;;
75171;SDS011;63750;52.418;20.742;2024-02-04T07:22:10;6.20;;;2.60;;
75171;SDS011;63750;52.418;20.742;2024-02-04T07:24:38;6.80;;;3.00;;
75171;SDS011;63750;52.418;20.742;2024-02-04T07:27:06;8.80;;;2.70;;
75171;SDS011;63750;52.418;20.742;2024-02-04T07:29:34;8.10;;;3.20;;
75171;SDS011;63750;52.418;20.742;2024-02-04T07:32:03;5.60;;;2.40;;
75171;SDS011;63750;52.418;20.742;2024-02-04T07:34:31;8.00;;;2.80;;
75171;SDS011;63750;52.418;20.742;2024-02-04T07:37:00;5.50;;;2.30;;
75171;SDS011;63750;52.418;20.742;2024-02-04T07:39:28;5.30;;;2.20;;
75171;SDS011;63750;52.418;20.742;2024-02-04T07:41:56;3.10;;;2.20;;
75171;SDS011;63750;52.418;20.742;2024-02-04T07:44:24;10.00;;;3.10;;
75171;SDS011;63750;52.418;20.742;2024-02-04T07:46:53;4.60;;;2.70;;
75171;SDS011;63750;52.418;20.742;2024-02-04T07:49:21;4.90;;;2.50;;
75171;SDS011;63750;52.418;20.742;2024-02-04T07:51:50;6.80;;;3.30;;
75171;SDS011;63750;52.418;20.742;2024-02-04T07:54:18;6.50;;;2.60;;
75171;SDS011;63750;52.418;20.742;2024-02-04T07:56:46;6.00;;;2.40;;
75171;SDS011;63750;52.418;20.742;2024-02-04T07:59:14;4.60;;;2.30;;
75171;SDS011;63750;52.418;20.742;2024-02-04T08:01:42;7.20;;;3.00;;
75171;SDS011;63750;52.418;20.742;2024-02-04T08:04:10;5.20;;;2.80;;
75171;SDS011;63750;52.418;20.742;2024-02-04T08:06:38;5.50;;;2.50;;
75171;SDS011;63750;52.418;20.742;2024-02-04T08:09:07;5.20;;;2.40;;
75171;SDS011;63750;52.418;20.742;2024-02-04T08:11:35;9.10;;;2.40;;
75171;SDS011;63750;52.418;20.742;2024-02-04T08:14:04;4.50;;;2.30;;
75171;SDS011;63750;52.418;20.742;2024-02-04T08:16:34;4.40;;;2.20;;
75171;SDS011;63750;52.418;20.742;2024-02-04T08:19:02;5.50;;;2.20;;
75171;SDS011;63750;52.418;20.742;2024-02-04T08:21:30;6.30;;;2.50;;
75171;SDS011;63750;52.418;20.742;2024-02-04T08:23:59;8.60;;;3.10;;
75171;SDS011;63750;52.418;20.742;2024-02-04T08:26:27;6.20;;;2.50;;
75171;SDS011;63750;52.418;20.742;2024-02-04T08:28:55;5.90;;;2.60;;
75171;SDS011;63750;52.418;20.742;2024-02-04T08:31:23;6.10;;;3.00;;
75171;SDS011;63750;52.418;20.742;2024-02-04T08:33:51;6.80;;;2.60;;
75171;SDS011;63750;52.418;20.742;2024-02-04T08:36:19;5.10;;;2.80;;
75171;SDS011;63750;52.418;20.742;2024-02-04T08:38:48;7.10;;;3.00;;
75171;SDS011;63750;52.418;20.742;2024-02-04T08:41:16;4.90;;;2.30;;
75171;SDS011;63750;52.418;20.742;2024-02-04T08:43:44;7.60;;;3.80;;
75171;SDS011;63750;52.418;20.742;2024-02-04T08:46:12;6.00;;;2.30;;
75171;SDS011;63750;52.418;20.742;2024-02-04T08:48:40;5.10;;;2.70;;
75171;SDS011;63750;52.418;20.742;2024-02-04T08:51:11;7.30;;;2.80;;
75171;SDS011;63750;52.418;20.742;2024-02-04T08:53:39;7.10;;;2.80;;
75171;SDS011;63750;52.418;20.742;2024-02-04T08:56:08;8.10;;;3.10;;
75171;SDS011;63750;52.418;20.742;2024-02-04T08:58:36;6.60;;;2.40;;
75171;SDS011;63750;52.418;20.742;2024-02-04T09:01:04;6.90;;;2.80;;
75171;SDS011;63750;52.418;20.742;2024-02-04T09:03:33;8.40;;;3.70;;
75171;SDS011;63750;52.418;20.742;2024-02-04T09:06:01;6.50;;;3.00;;
75171;SDS011;63750;52.418;20.742;2024-02-04T09:08:29;4.00;;;3.00;;
75171;SDS011;63750;52.418;20.742;2024-02-04T09:10:58;5.00;;;2.70;;
75171;SDS011;63750;52.418;20.742;2024-02-04T09:13:26;6.40;;;2.70;;
75171;SDS011;63750;52.418;20.742;2024-02-04T09:15:54;5.10;;;3.00;;
75171;SDS011;63750;52.418;20.742;2024-02-04T09:18:22;5.90;;;2.80;;
75171;SDS011;63750;52.418;20.742;2024-02-04T09:20:50;5.60;;;2.60;;
75171;SDS011;63750;52.418;20.742;2024-02-04T09:23:18;6.80;;;3.20;;
75171;SDS011;63750;52.418;20.742;2024-02-04T09:25:46;10.40;;;3.50;;
75171;SDS011;63750;52.418;20.742;2024-02-04T09:28:15;8.20;;;2.90;;
75171;SDS011;63750;52.418;20.742;2024-02-04T09:30:43;5.20;;;2.60;;
75171;SDS011;63750;52.418;20.742;2024-02-04T09:33:11;5.70;;;2.80;;
75171;SDS011;63750;52.418;20.742;2024-02-04T09:35:40;5.40;;;2.60;;
75171;SDS011;63750;52.418;20.742;2024-02-04T09:38:08;6.90;;;2.80;;
75171;SDS011;63750;52.418;20.742;2024-02-04T09:40:36;4.90;;;2.90;;
75171;SDS011;63750;52.418;20.742;2024-02-04T09:43:04;6.70;;;2.40;;
75171;SDS011;63750;52.418;20.742;2024-02-04T09:45:34;7.60;;;2.90;;
75171;SDS011;63750;52.418;20.742;2024-02-04T09:48:04;6.20;;;2.80;;
75171;SDS011;63750;52.418;20.742;2024-02-04T09:50:34;7.10;;;2.70;;
75171;SDS011;63750;52.418;20.742;2024-02-04T09:53:03;8.40;;;3.60;;
75171;SDS011;63750;52.418;20.742;2024-02-04T09:55:35;7.50;;;3.40;;
75171;SDS011;63750;52.418;20.742;2024-02-04T09:58:06;5.20;;;3.30;;
75171;SDS011;63750;52.418;20.742;2024-02-04T10:00:34;7.50;;;2.70;;
75171;SDS011;63750;52.418;20.742;2024-02-04T10:03:05;4.60;;;2.70;;
75171;SDS011;63750;52.418;20.742;2024-02-04T10:05:33;6.20;;;3.10;;
75171;SDS011;63750;52.418;20.742;2024-02-04T10:08:01;8.40;;;3.10;;
75171;SDS011;63750;52.418;20.742;2024-02-04T10:10:30;6.50;;;2.80;;
75171;SDS011;63750;52.418;20.742;2024-02-04T10:12:59;7.20;;;3.20;;
75171;SDS011;63750;52.418;20.742;2024-02-04T10:15:31;6.60;;;2.80;;
75171;SDS011;63750;52.418;20.742;2024-02-04T10:18:02;6.00;;;2.60;;
75171;SDS011;63750;52.418;20.742;2024-02-04T10:20:32;5.50;;;2.60;;
75171;SDS011;63750;52.418;20.742;2024-02-04T10:23:00;8.00;;;3.20;;
75171;SDS011;63750;52.418;20.742;2024-02-04T10:25:29;9.00;;;3.30;;
75171;SDS011;63750;52.418;20.742;2024-02-04T10:27:57;8.40;;;3.20;;
75171;SDS011;63750;52.418;20.742;2024-02-04T10:30:25;5.50;;;2.80;;
75171;SDS011;63750;52.418;20.742;2024-02-04T10:33:00;6.80;;;3.00;;
75171;SDS011;63750;52.418;20.742;2024-02-04T10:35:28;6.00;;;3.00;;
75171;SDS011;63750;52.418;20.742;2024-02-04T10:37:57;5.70;;;2.40;;
75171;SDS011;63750;52.418;20.742;2024-02-04T10:40:25;7.20;;;2.70;;
75171;SDS011;63750;52.418;20.742;2024-02-04T10:42:53;6.90;;;2.60;;
75171;SDS011;63750;52.418;20.742;2024-02-04T10:45:30;6.10;;;3.20;;
75171;SDS011;63750;52.418;20.742;2024-02-04T10:48:05;5.00;;;2.70;;
75171;SDS011;63750;52.418;20.742;2024-02-04T10:50:35;7.60;;;3.00;;
75171;SDS011;63750;52.418;20.742;2024-02-04T10:53:04;7.20;;;3.30;;
75171;SDS011;63750;52.418;20.742;2024-02-04T10:55:35;6.40;;;3.40;;
75171;SDS011;63750;52.418;20.742;2024-02-04T10:58:07;8.70;;;3.40;;
75171;SDS011;63750;52.418;20.742;2024-02-04T11:00:38;8.50;;;4.30;;
75171;SDS011;63750;52.418;20.742;2024-02-04T11:03:08;11.00;;;4.10;;
75171;SDS011;63750;52.418;20.742;2024-02-04T11:05:37;7.50;;;3.10;;
75171;SDS011;63750;52.418;20.742;2024-02-04T11:08:08;5.70;;;2.90;;
75171;SDS011;63750;52.418;20.742;2024-02-04T11:10:38;8.10;;;3.50;;
75171;SDS011;63750;52.418;20.742;2024-02-04T11:13:07;5.40;;;3.10;;
75171;SDS011;63750;52.418;20.742;2024-02-04T11:15:37;6.80;;;3.30;;
75171;SDS011;63750;52.418;20.742;2024-02-04T11:18:11;7.90;;;3.60;;
75171;SDS011;63750;52.418;20.742;2024-02-04T11:24:01;7.00;;;3.10;;
75171;SDS011;63750;52.418;20.742;2024-02-04T11:26:49;5.10;;;3.00;;
75171;SDS011;63750;52.418;20.742;2024-02-04T11:29:17;8.30;;;3.10;;
75171;SDS011;63750;52.418;20.742;2024-02-04T11:31:46;7.10;;;3.20;;
75171;SDS011;63750;52.418;20.742;2024-02-04T11:34:14;8.20;;;4.00;;
75171;SDS011;63750;52.418;20.742;2024-02-04T11:36:42;10.30;;;4.00;;
75171;SDS011;63750;52.418;20.742;2024-02-04T11:39:14;7.30;;;3.60;;
75171;SDS011;63750;52.418;20.742;2024-02-04T11:41:47;5.80;;;3.20;;
75171;SDS011;63750;52.418;20.742;2024-02-04T11:44:21;4.70;;;2.90;;
75171;SDS011;63750;52.418;20.742;2024-02-04T11:46:50;9.00;;;3.60;;
75171;SDS011;63750;52.418;20.742;2024-02-04T11:49:19;8.70;;;3.60;;
75171;SDS011;63750;52.418;20.742;2024-02-04T11:51:51;8.60;;;3.70;;
75171;SDS011;63750;52.418;20.742;2024-02-04T11:54:20;8.10;;;3.90;;
75171;SDS011;63750;52.418;20.742;2024-02-04T11:56:49;10.70;;;4.00;;
75171;SDS011;63750;52.418;20.742;2024-02-04T11:59:18;9.40;;;3.70;;
75171;SDS011;63750;52.418;20.742;2024-02-04T12:01:48;7.90;;;3.90;;
75171;SDS011;63750;52.418;20.742;2024-02-04T12:04:20;4.60;;;3.60;;
75171;SDS011;63750;52.418;20.742;2024-02-04T12:06:48;9.40;;;4.40;;
75171;SDS011;63750;52.418;20.742;2024-02-04T12:09:18;11.90;;;4.60;;
75171;SDS011;63750;52.418;20.742;2024-02-04T12:11:46;6.90;;;4.20;;
75171;SDS011;63750;52.418;20.742;2024-02-04T12:14:15;9.60;;;5.00;;
75171;SDS011;63750;52.418;20.742;2024-02-04T12:16:44;13.50;;;5.40;;
75171;SDS011;63750;52.418;20.742;2024-02-04T12:19:12;10.90;;;5.00;;
75171;SDS011;63750;52.418;20.742;2024-02-04T12:21:40;12.40;;;5.10;;
75171;SDS011;63750;52.418;20.742;2024-02-04T12:24:09;9.60;;;4.20;;
75171;SDS011;63750;52.418;20.742;2024-02-04T12:26:37;7.20;;;4.00;;
75171;SDS011;63750;52.418;20.742;2024-02-04T12:29:05;7.90;;;4.70;;
75171;SDS011;63750;52.418;20.742;2024-02-04T12:31:34;9.70;;;3.80;;
75171;SDS011;63750;52.418;20.742;2024-02-04T12:34:02;9.70;;;4.60;;
75171;SDS011;63750;52.418;20.742;2024-02-04T12:36:30;8.70;;;4.00;;
75171;SDS011;63750;52.418;20.742;2024-02-04T12:38:59;7.60;;;3.70;;
75171;SDS011;63750;52.418;20.742;2024-02-04T12:41:28;7.20;;;3.30;;
75171;SDS011;63750;52.418;20.742;2024-02-04T12:43:56;8.20;;;3.80;;
75171;SDS011;63750;52.418;20.742;2024-02-04T12:46:26;7.10;;;3.30;;
75171;SDS011;63750;52.418;20.742;2024-02-04T12:48:55;5.40;;;3.60;;
75171;SDS011;63750;52.418;20.742;2024-02-04T12:51:25;9.80;;;3.60;;
75171;SDS011;63750;52.418;20.742;2024-02-04T12:54:03;6.50;;;3.70;;
75171;SDS011;63750;52.418;20.742;2024-02-04T12:56:46;6.50;;;4.30;;
75171;SDS011;63750;52.418;20.742;2024-02-04T12:59:25;4.70;;;3.30;;
75171;SDS011;63750;52.418;20.742;2024-02-04T13:01:54;6.80;;;3.70;;
75171;SDS011;63750;52.418;20.742;2024-02-04T13:04:23;8.00;;;4.10;;
75171;SDS011;63750;52.418;20.742;2024-02-04T13:06:52;8.20;;;3.50;;
75171;SDS011;63750;52.418;20.742;2024-02-04T13:09:20;4.40;;;3.00;;
75171;SDS011;63750;52.418;20.742;2024-02-04T13:11:49;6.00;;;3.70;;
75171;SDS011;63750;52.418;20.742;2024-02-04T13:14:17;6.80;;;3.90;;
75171;SDS011;63750;52.418;20.742;2024-02-04T13:16:45;7.20;;;3.70;;
75171;SDS011;63750;52.418;20.742;2024-02-04T13:19:13;5.50;;;3.80;;
75171;SDS011;63750;52.418;20.742;2024-02-04T13:21:41;7.70;;;3.40;;
75171;SDS011;63750;52.418;20.742;2024-02-04T13:24:09;7.20;;;3.40;;
75171;SDS011;63750;52.418;20.742;2024-02-04T13:26:38;7.70;;;4.20;;
75171;SDS011;63750;52.418;20.742;2024-02-04T13:29:06;9.30;;;4.90;;
75171;SDS011;63750;52.418;20.742;2024-02-04T13:31:34;5.50;;;3.60;;
75171;SDS011;63750;52.418;20.742;2024-02-04T13:34:02;8.30;;;3.80;;
75171;SDS011;63750;52.418;20.742;2024-02-04T13:36:30;7.60;;;4.00;;
75171;SDS011;63750;52.418;20.742;2024-02-04T13:38:59;6.80;;;3.80;;
75171;SDS011;63750;52.418;20.742;2024-02-04T13:41:28;8.90;;;4.50;;
75171;SDS011;63750;52.418;20.742;2024-02-04T13:43:56;6.60;;;4.00;;
75171;SDS011;63750;52.418;20.742;2024-02-04T13:46:26;7.10;;;4.40;;
75171;SDS011;63750;52.418;20.742;2024-02-04T13:48:54;9.40;;;4.50;;
75171;SDS011;63750;52.418;20.742;2024-02-04T13:51:22;9.00;;;4.40;;
75171;SDS011;63750;52.418;20.742;2024-02-04T13:53:50;9.20;;;4.60;;
75171;SDS011;63750;52.418;20.742;2024-02-04T13:56:22;9.00;;;4.70;;
75171;SDS011;63750;52.418;20.742;2024-02-04T13:58:51;8.50;;;4.40;;
75171;SDS011;63750;52.418;20.742;2024-02-04T14:01:23;7.60;;;4.10;;
75171;SDS011;63750;52.418;20.742;2024-02-04T14:03:51;8.20;;;3.90;;
75171;SDS011;63750;52.418;20.742;2024-02-04T14:06:22;7.60;;;3.90;;
75171;SDS011;63750;52.418;20.742;2024-02-04T14:08:51;7.80;;;3.90;;
75171;SDS011;63750;52.418;20.742;2024-02-04T14:11:20;7.40;;;3.80;;
75171;SDS011;63750;52.418;20.742;2024-02-04T14:14:03;5.20;;;3.60;;
75171;SDS011;63750;52.418;20.742;2024-02-04T14:16:32;6.20;;;3.70;;
75171;SDS011;63750;52.418;20.742;2024-02-04T14:19:00;7.00;;;4.30;;
75171;SDS011;63750;52.418;20.742;2024-02-04T14:21:28;9.60;;;3.70;;
75171;SDS011;63750;52.418;20.742;2024-02-04T14:23:57;5.20;;;3.70;;
75171;SDS011;63750;52.418;20.742;2024-02-04T14:26:26;9.10;;;3.70;;
75171;SDS011;63750;52.418;20.742;2024-02-04T14:28:54;7.60;;;4.00;;
75171;SDS011;63750;52.418;20.742;2024-02-04T14:31:22;7.50;;;3.90;;
75171;SDS011;63750;52.418;20.742;2024-02-04T14:33:55;6.60;;;3.70;;
75171;SDS011;63750;52.418;20.742;2024-02-04T14:36:24;6.80;;;3.70;;
75171;SDS011;63750;52.418;20.742;2024-02-04T14:38:52;7.10;;;4.40;;
75171;SDS011;63750;52.418;20.742;2024-02-04T14:41:20;5.10;;;3.80;;
75171;SDS011;63750;52.418;20.742;2024-02-04T14:43:48;7.00;;;3.50;;
75171;SDS011;63750;52.418;20.742;2024-02-04T14:46:16;5.70;;;3.80;;